createdAt,value
2019-05-03T00:00:52.110Z,8.92
2019-05-03T00:06:01.724Z,14.87
2019-05-03T00:11:07.164Z,9.65
2019-05-03T00:16:14.874Z,9.96
2019-05-03T00:21:22.579Z,10.10
2019-05-03T00:26:31.835Z,11.16
2019-05-03T00:31:37.849Z,11.01
2019-05-03T00:36:45.735Z,7.50
2019-05-03T00:41:53.440Z,7.71
2019-05-03T00:47:02.322Z,9.26
2019-05-03T00:52:08.367Z,10.47
2019-05-03T00:57:16.151Z,10.01
2019-05-03T01:02:26.213Z,10.21
2019-05-03T01:07:31.861Z,8.78
2019-05-03T01:12:38.416Z,12.40
2019-05-03T01:17:46.102Z,11.25
2019-05-03T01:22:53.875Z,9.51
2019-05-03T01:28:01.630Z,9.75
2019-05-03T01:33:09.412Z,7.69
2019-05-03T01:38:19.369Z,8.91
2019-05-03T01:43:24.472Z,8.71
2019-05-03T01:48:32.277Z,9.38
2019-05-03T01:53:41.710Z,8.78
2019-05-03T01:58:47.479Z,8.20
2019-05-03T02:03:55.423Z,8.08
2019-05-03T02:09:03.324Z,8.39
2019-05-03T02:14:12.414Z,8.92
2019-05-03T02:19:18.499Z,7.22
2019-05-03T02:24:26.293Z,6.59
2019-05-03T02:29:34.166Z,6.71
2019-05-03T02:34:43.935Z,8.19
2019-05-03T02:39:49.085Z,7.26
2019-05-03T02:44:56.939Z,7.15
2019-05-03T02:50:05.871Z,8.56
2019-05-03T02:55:15.674Z,8.74
2019-05-03T03:00:19.454Z,7.60
2019-05-03T03:05:27.278Z,7.09
2019-05-03T03:10:37.810Z,4.88
2019-05-03T03:15:36.271Z,8.69
2019-05-03T03:20:44.909Z,8.72
2019-05-03T03:25:50.040Z,7.16
2019-05-03T03:30:57.874Z,5.89
2019-05-03T03:36:32.049Z,8.26
2019-05-03T03:41:16.169Z,8.70
2019-05-03T03:46:20.362Z,9.19
2019-05-03T03:51:28.128Z,8.37
2019-05-03T03:56:53.596Z,8.93
2019-05-03T04:01:45.675Z,7.71
2019-05-03T04:06:50.983Z,7.79
2019-05-03T04:11:58.795Z,7.88
2019-05-03T04:17:06.406Z,8.64
2019-05-03T04:22:16.488Z,7.27
2019-05-03T04:27:24.410Z,7.47
2019-05-03T04:32:29.281Z,8.75
2019-05-03T04:37:36.741Z,8.72
2019-05-03T04:42:46.475Z,9.02
2019-05-03T04:47:51.834Z,8.02
2019-05-03T04:52:59.657Z,11.36
2019-05-03T04:58:08.283Z,10.29
2019-05-03T05:03:16.034Z,7.54
2019-05-03T05:08:25.311Z,11.87
2019-05-03T05:13:31.041Z,10.10
2019-05-03T05:18:38.767Z,9.70
2019-05-03T05:23:46.825Z,9.08
2019-05-03T05:28:54.878Z,8.96
2019-05-03T05:34:01.886Z,8.94
2019-05-03T05:39:09.554Z,7.62
2019-05-03T05:44:17.277Z,14.61
2019-05-03T05:49:25.967Z,13.13
2019-05-03T05:54:32.353Z,12.35
2019-05-03T05:59:40.025Z,14.21
2019-05-03T06:04:47.924Z,11.45
2019-05-03T06:09:55.574Z,10.69
2019-05-03T06:15:04.741Z,11.67
2019-05-03T06:20:10.445Z,14.21
2019-05-03T06:25:18.376Z,9.90
2019-05-03T06:30:26.040Z,7.89
2019-05-03T06:35:34.565Z,7.58
2019-05-03T06:40:41.138Z,13.70
2019-05-03T06:45:50.287Z,13.22
2019-05-03T06:51:00.182Z,11.22
2019-05-03T06:56:04.512Z,8.57
2019-05-03T07:01:11.370Z,9.56
2019-05-03T07:06:18.305Z,11.04
2019-05-03T07:11:26.153Z,10.50
2019-05-03T07:16:35.338Z,10.55
2019-05-03T07:21:41.036Z,9.85
2019-05-03T07:26:48.996Z,9.38
2019-05-03T07:31:56.800Z,13.20
2019-05-03T07:37:05.899Z,9.62
2019-05-03T07:42:11.658Z,11.17
2019-05-03T07:47:19.471Z,9.03
2019-05-03T07:52:27.163Z,11.79
2019-05-03T07:57:35.780Z,8.24
2019-05-03T08:02:44.630Z,7.61
2019-05-03T08:07:50.074Z,9.45
2019-05-03T08:12:57.698Z,6.85
2019-05-03T08:18:05.541Z,6.29
2019-05-03T08:23:24.447Z,5.67
2019-05-03T08:28:20.509Z,6.85
2019-05-03T08:33:28.152Z,6.25
2019-05-03T08:38:35.945Z,8.37
2019-05-03T08:43:44.648Z,9.70
2019-05-03T08:48:51.066Z,9.28
2019-05-03T08:53:58.769Z,8.31
2019-05-03T08:59:06.640Z,13.85
2019-05-03T09:04:15.455Z,8.52
2019-05-03T09:09:21.646Z,9.11
2019-05-03T09:14:41.447Z,5.37
2019-05-03T09:19:36.840Z,3.91
2019-05-03T09:24:45.570Z,5.19
2019-05-03T09:29:51.825Z,9.50
2019-05-03T09:34:59.513Z,12.07
2019-05-03T09:40:07.444Z,6.02
2019-05-03T09:45:15.419Z,6.37
2019-05-03T09:50:24.593Z,7.22
2019-05-03T09:55:30.351Z,9.84
2019-05-03T10:00:38.134Z,7.27
2019-05-03T10:05:45.960Z,8.26
2019-05-03T10:10:53.734Z,11.58
2019-05-03T10:16:01.812Z,5.01
2019-05-03T10:21:09.665Z,5.79
2019-05-03T10:26:17.342Z,5.38
2019-05-03T10:31:25.266Z,5.26
2019-05-03T10:36:32.775Z,5.49
2019-05-03T10:41:40.390Z,7.71
2019-05-03T10:46:49.245Z,4.25
2019-05-03T10:51:56.866Z,6.13
2019-05-03T10:57:05.233Z,6.92
2019-05-03T11:02:11.687Z,5.90
2019-05-03T11:07:19.460Z,6.07
2019-05-03T11:12:27.295Z,4.23
2019-05-03T11:17:35.022Z,6.69
2019-05-03T11:22:42.792Z,5.39
2019-05-03T11:27:50.494Z,6.07
2019-05-03T11:32:58.149Z,5.64
2019-05-03T11:38:05.815Z,4.94
2019-05-03T11:43:15.238Z,6.82
2019-05-03T11:48:20.697Z,5.37
2019-05-03T11:53:28.428Z,5.98
2019-05-03T11:58:36.287Z,6.25
2019-05-03T12:03:45.084Z,5.79
2019-05-03T12:08:51.328Z,6.41
2019-05-03T12:14:04.411Z,6.48
2019-05-03T12:19:16.106Z,5.83
2019-05-03T12:24:15.907Z,7.56
2019-05-03T12:29:21.989Z,6.75
2019-05-03T12:34:29.770Z,8.03
2019-05-03T12:39:37.559Z,9.86
2019-05-03T12:44:46.039Z,7.70
2019-05-03T12:49:53.238Z,9.08
2019-05-03T12:55:00.981Z,6.49
2019-05-03T13:00:08.610Z,7.59
2019-05-03T13:05:16.334Z,6.78
2019-05-03T13:10:26.391Z,5.15
2019-05-03T13:15:31.426Z,5.00
2019-05-03T13:20:39.125Z,5.67
2019-05-03T13:25:46.865Z,5.90
2019-05-03T13:30:54.724Z,6.52
2019-05-03T13:36:02.437Z,6.30
2019-05-03T13:41:10.132Z,9.21
2019-05-03T13:46:17.806Z,5.77
2019-05-03T13:51:25.650Z,5.79
2019-05-03T13:56:35.170Z,7.22
2019-05-03T14:01:40.588Z,6.22
2019-05-03T14:06:48.340Z,5.07
2019-05-03T14:11:56.112Z,6.83
2019-05-03T14:17:05.287Z,6.41
2019-05-03T14:22:11.762Z,5.80
2019-05-03T14:27:19.577Z,4.96
2019-05-03T14:32:28.968Z,5.91
2019-05-03T14:37:34.983Z,5.93
2019-05-03T14:42:44.717Z,6.39
2019-05-03T14:47:50.102Z,6.98
2019-05-03T14:52:57.957Z,4.00
2019-05-03T14:58:05.814Z,4.73
2019-05-03T15:03:15.111Z,4.69
2019-05-03T15:08:20.826Z,4.16
2019-05-03T15:13:28.608Z,5.97
2019-05-03T15:18:36.473Z,6.64
2019-05-03T15:23:45.333Z,5.57
2019-05-03T15:28:51.657Z,8.51
2019-05-03T15:33:59.325Z,7.14
2019-05-03T15:39:07.201Z,5.91
2019-05-03T15:44:14.905Z,5.22
2019-05-03T15:49:25.543Z,5.00
2019-05-03T15:54:29.831Z,4.79
2019-05-03T15:59:37.612Z,7.69
2019-05-03T16:04:45.369Z,5.67
2019-05-03T16:09:55.085Z,3.71
2019-05-03T16:15:00.738Z,6.41
2019-05-03T16:20:08.557Z,5.12
2019-05-03T16:25:16.234Z,6.10
2019-05-03T16:30:25.609Z,4.38
2019-05-03T16:35:31.209Z,5.57
2019-05-03T16:40:38.917Z,5.82
2019-05-03T16:45:46.705Z,5.99
2019-05-03T16:50:52.838Z,4.30
2019-05-03T16:56:03.241Z,4.40
2019-05-03T17:01:07.817Z,7.13
2019-05-03T17:06:15.569Z,5.65
2019-05-03T17:11:21.578Z,6.83
2019-05-03T17:16:29.250Z,6.42
2019-05-03T17:21:37.060Z,4.69
2019-05-03T17:26:44.884Z,5.38
2019-05-03T17:31:52.621Z,8.74
2019-05-03T17:37:01.448Z,4.69
2019-05-03T17:42:09.106Z,6.32
2019-05-03T17:47:16.862Z,6.40
2019-05-03T17:52:24.589Z,6.91
2019-05-03T17:57:35.113Z,6.14
2019-05-03T18:02:32.769Z,9.86
2019-05-03T18:07:40.587Z,6.87
2019-05-03T18:12:48.246Z,4.66
2019-05-03T18:17:56.434Z,6.29
2019-05-03T18:23:05.090Z,7.35
2019-05-03T18:28:11.490Z,4.39
2019-05-03T18:33:19.546Z,4.87
2019-05-03T18:38:27.182Z,5.42
2019-05-03T18:43:34.817Z,8.23
2019-05-03T18:48:44.450Z,4.59
2019-05-03T18:53:49.945Z,6.01
2019-05-03T18:58:57.768Z,4.83
2019-05-03T19:04:05.401Z,4.72
2019-05-03T19:09:14.567Z,5.80
2019-05-03T19:14:20.496Z,6.33
2019-05-03T19:19:28.439Z,6.47
2019-05-03T19:24:36.106Z,5.69
2019-05-03T19:29:44.868Z,4.45
2019-05-03T19:34:51.755Z,7.51
2019-05-03T19:39:59.357Z,5.91
2019-05-03T19:45:07.132Z,5.58
2019-05-03T19:50:15.728Z,5.76
2019-05-03T19:55:22.074Z,5.48
2019-05-03T20:00:29.774Z,5.56
2019-05-03T20:05:37.474Z,7.59
2019-05-03T20:10:45.290Z,5.39
2019-05-03T20:15:55.192Z,5.35
2019-05-03T20:21:00.325Z,3.79
2019-05-03T20:26:08.086Z,4.04
2019-05-03T20:31:15.925Z,3.19
2019-05-03T20:36:23.769Z,4.26
2019-05-03T20:41:31.597Z,3.62
2019-05-03T20:46:39.423Z,3.79
2019-05-03T20:51:51.021Z,4.19
2019-05-03T20:56:54.651Z,4.11
2019-05-03T21:02:02.177Z,3.82
2019-05-03T21:07:11.020Z,4.89
2019-05-03T21:12:18.618Z,5.56
2019-05-03T21:17:26.238Z,6.50
2019-05-03T21:22:35.395Z,5.20
2019-05-03T21:27:41.373Z,5.45
2019-05-03T21:32:49.142Z,5.86
2019-05-03T21:37:56.796Z,5.51
2019-05-03T21:43:04.914Z,6.14
2019-05-03T21:48:14.452Z,6.18
2019-05-03T21:53:20.145Z,4.36
2019-05-03T21:58:27.833Z,4.49
2019-05-03T22:03:35.717Z,5.73
2019-05-03T22:08:45.367Z,3.73
2019-05-03T22:13:50.930Z,6.16
2019-05-03T22:18:58.749Z,6.10
2019-05-03T22:24:06.556Z,5.18
2019-05-03T22:29:14.440Z,7.36
2019-05-03T22:34:22.462Z,5.94
2019-05-03T22:39:30.327Z,4.99
2019-05-03T22:44:38.115Z,5.95
2019-05-03T22:49:45.924Z,7.60
2019-05-03T22:54:55.441Z,6.25
2019-05-03T23:00:01.091Z,6.92
2019-05-03T23:05:08.902Z,5.05
2019-05-03T23:10:17.496Z,6.00
2019-05-03T23:15:24.400Z,7.40
2019-05-03T23:20:31.298Z,5.64
2019-05-03T23:25:39.261Z,9.48
2019-05-03T23:30:46.913Z,5.72
2019-05-03T23:35:55.232Z,7.25
2019-05-03T23:41:04.693Z,11.43
2019-05-03T23:46:09.932Z,7.78
2019-05-03T23:51:17.598Z,7.79
2019-05-03T23:56:25.478Z,9.34
